sensor_id;sensor_type;location;lat;lon;timestamp;pressure;altitude;pressure_sealevel;temperature;humidity
64687;BME280;51113;53.646;-113.674;2022-07-12T00:00:23;93599.66;;;25.14;40.10
64687;BME280;51113;53.646;-113.674;2022-07-12T00:02:52;93584.16;;;24.82;41.14
64687;BME280;51113;53.646;-113.674;2022-07-12T00:05:21;93596.56;;;25.04;42.13
64687;BME280;51113;53.646;-113.674;2022-07-12T00:07:50;93591.47;;;25.02;42.30
64687;BME280;51113;53.646;-113.674;2022-07-12T00:10:19;93590.84;;;25.29;42.47
64687;BME280;51113;53.646;-113.674;2022-07-12T00:12:48;93593.91;;;25.40;41.83
64687;BME280;51113;53.646;-113.674;2022-07-12T00:15:17;93580.41;;;25.19;42.25
64687;BME280;51113;53.646;-113.674;2022-07-12T00:17:45;93578.94;;;25.34;45.38
64687;BME280;51113;53.646;-113.674;2022-07-12T00:20:14;93586.75;;;25.23;42.57
64687;BME280;51113;53.646;-113.674;2022-07-12T00:22:42;93583.47;;;25.42;44.62
64687;BME280;51113;53.646;-113.674;2022-07-12T00:25:11;93586.31;;;25.33;42.61
64687;BME280;51113;53.646;-113.674;2022-07-12T00:27:40;93587.44;;;25.45;42.66
64687;BME280;51113;53.646;-113.674;2022-07-12T00:30:09;93588.34;;;25.49;41.06
64687;BME280;51113;53.646;-113.674;2022-07-12T00:32:38;93580.88;;;25.46;40.49
64687;BME280;51113;53.646;-113.674;2022-07-12T00:35:07;93586.19;;;25.54;42.20
64687;BME280;51113;53.646;-113.674;2022-07-12T00:37:36;93575.66;;;25.41;41.06
64687;BME280;51113;53.646;-113.674;2022-07-12T00:40:06;93576.66;;;25.36;41.06
64687;BME280;51113;53.646;-113.674;2022-07-12T00:42:37;93575.53;;;25.37;40.44
64687;BME280;51113;53.646;-113.674;2022-07-12T00:45:10;93577.91;;;25.51;40.05
64687;BME280;51113;53.646;-113.674;2022-07-12T00:47:44;93564.78;;;25.65;40.79
64687;BME280;51113;53.646;-113.674;2022-07-12T00:50:15;93571.47;;;25.68;41.55
64687;BME280;51113;53.646;-113.674;2022-07-12T00:52:45;93564.22;;;25.72;41.13
64687;BME280;51113;53.646;-113.674;2022-07-12T00:55:18;93563.06;;;25.36;42.44
64687;BME280;51113;53.646;-113.674;2022-07-12T00:57:47;93565.44;;;25.50;40.69
64687;BME280;51113;53.646;-113.674;2022-07-12T01:00:20;93560.56;;;25.55;41.46
64687;BME280;51113;53.646;-113.674;2022-07-12T01:02:50;93566.47;;;25.57;40.34
64687;BME280;51113;53.646;-113.674;2022-07-12T01:05:21;93566.03;;;25.80;39.92
64687;BME280;51113;53.646;-113.674;2022-07-12T01:07:50;93560.91;;;25.90;39.99
64687;BME280;51113;53.646;-113.674;2022-07-12T01:10:19;93558.63;;;25.92;40.33
64687;BME280;51113;53.646;-113.674;2022-07-12T01:12:49;93559.56;;;25.84;42.25
64687;BME280;51113;53.646;-113.674;2022-07-12T01:15:20;93566.03;;;25.80;40.67
64687;BME280;51113;53.646;-113.674;2022-07-12T01:17:49;93556.75;;;25.69;41.50
64687;BME280;51113;53.646;-113.674;2022-07-12T01:20:20;93562.97;;;25.57;40.58
64687;BME280;51113;53.646;-113.674;2022-07-12T01:22:53;93562.63;;;25.58;40.82
64687;BME280;51113;53.646;-113.674;2022-07-12T01:25:23;93555.59;;;25.57;41.46
64687;BME280;51113;53.646;-113.674;2022-07-12T01:27:52;93551.31;;;25.69;41.96
64687;BME280;51113;53.646;-113.674;2022-07-12T01:30:21;93550.06;;;25.66;41.66
64687;BME280;51113;53.646;-113.674;2022-07-12T01:32:51;93549.47;;;25.48;41.24
64687;BME280;51113;53.646;-113.674;2022-07-12T01:35:21;93550.94;;;25.46;42.30
64687;BME280;51113;53.646;-113.674;2022-07-12T01:37:50;93546.28;;;25.58;41.78
64687;BME280;51113;53.646;-113.674;2022-07-12T01:40:19;93547.09;;;25.47;41.56
64687;BME280;51113;53.646;-113.674;2022-07-12T01:42:49;93555.03;;;25.40;42.29
64687;BME280;51113;53.646;-113.674;2022-07-12T01:45:20;93543.69;;;25.50;41.58
64687;BME280;51113;53.646;-113.674;2022-07-12T01:47:48;93542.78;;;25.46;41.92
64687;BME280;51113;53.646;-113.674;2022-07-12T01:50:17;93548.47;;;25.41;41.69
64687;BME280;51113;53.646;-113.674;2022-07-12T01:52:46;93530.44;;;25.36;41.95
64687;BME280;51113;53.646;-113.674;2022-07-12T01:55:15;93539.84;;;25.39;41.92
64687;BME280;51113;53.646;-113.674;2022-07-12T01:57:44;93526.38;;;25.30;42.26
64687;BME280;51113;53.646;-113.674;2022-07-12T02:00:13;93525.13;;;25.27;43.02
64687;BME280;51113;53.646;-113.674;2022-07-12T02:02:45;93526.94;;;25.36;42.17
64687;BME280;51113;53.646;-113.674;2022-07-12T02:05:15;93521.72;;;25.30;42.07
64687;BME280;51113;53.646;-113.674;2022-07-12T02:07:44;93518.56;;;25.16;42.18
64687;BME280;51113;53.646;-113.674;2022-07-12T02:10:13;93526.72;;;25.28;42.47
64687;BME280;51113;53.646;-113.674;2022-07-12T02:12:42;93522.41;;;25.15;42.80
64687;BME280;51113;53.646;-113.674;2022-07-12T02:15:12;93527.50;;;25.17;43.68
64687;BME280;51113;53.646;-113.674;2022-07-12T02:17:41;93517.88;;;25.07;44.11
64687;BME280;51113;53.646;-113.674;2022-07-12T02:20:11;93518.97;;;24.94;46.29
64687;BME280;51113;53.646;-113.674;2022-07-12T02:22:41;93509.44;;;24.88;46.63
64687;BME280;51113;53.646;-113.674;2022-07-12T02:25:09;93508.53;;;24.84;45.94
64687;BME280;51113;53.646;-113.674;2022-07-12T02:27:39;93514.06;;;24.75;46.44
64687;BME280;51113;53.646;-113.674;2022-07-12T02:30:11;93508.41;;;24.80;46.53
64687;BME280;51113;53.646;-113.674;2022-07-12T02:32:40;93511.66;;;24.61;46.04
64687;BME280;51113;53.646;-113.674;2022-07-12T02:35:08;93512.78;;;24.48;46.87
64687;BME280;51113;53.646;-113.674;2022-07-12T02:37:37;93507.31;;;24.36;47.62
64687;BME280;51113;53.646;-113.674;2022-07-12T02:40:06;93503.13;;;24.18;47.67
64687;BME280;51113;53.646;-113.674;2022-07-12T02:42:54;93498.88;;;23.96;49.12
64687;BME280;51113;53.646;-113.674;2022-07-12T02:45:22;93499.19;;;23.94;48.68
64687;BME280;51113;53.646;-113.674;2022-07-12T02:47:51;93503.13;;;23.85;47.82
64687;BME280;51113;53.646;-113.674;2022-07-12T02:50:20;93503.19;;;23.76;48.00
64687;BME280;51113;53.646;-113.674;2022-07-12T02:52:48;93494.72;;;23.57;49.05
64687;BME280;51113;53.646;-113.674;2022-07-12T02:55:18;93492.03;;;23.48;50.10
64687;BME280;51113;53.646;-113.674;2022-07-12T02:57:46;93494.16;;;23.42;48.13
64687;BME280;51113;53.646;-113.674;2022-07-12T03:00:15;93490.66;;;23.33;48.61
64687;BME280;51113;53.646;-113.674;2022-07-12T03:02:43;93488.53;;;23.18;49.27
64687;BME280;51113;53.646;-113.674;2022-07-12T03:05:12;93488.72;;;23.13;48.50
64687;BME280;51113;53.646;-113.674;2022-07-12T03:07:41;93487.16;;;23.03;49.09
64687;BME280;51113;53.646;-113.674;2022-07-12T03:10:10;93474.31;;;22.92;49.34
64687;BME280;51113;53.646;-113.674;2022-07-12T03:12:39;93476.56;;;22.90;48.56
64687;BME280;51113;53.646;-113.674;2022-07-12T03:15:08;93481.38;;;22.84;48.94
64687;BME280;51113;53.646;-113.674;2022-07-12T03:17:38;93483.63;;;22.73;49.15
64687;BME280;51113;53.646;-113.674;2022-07-12T03:20:07;93481.09;;;22.68;49.75
64687;BME280;51113;53.646;-113.674;2022-07-12T03:22:39;93468.84;;;22.62;49.98
64687;BME280;51113;53.646;-113.674;2022-07-12T03:25:08;93471.13;;;22.52;50.90
64687;BME280;51113;53.646;-113.674;2022-07-12T03:27:37;93480.25;;;22.38;51.37
64687;BME280;51113;53.646;-113.674;2022-07-12T03:30:10;93481.53;;;22.32;51.83
64687;BME280;51113;53.646;-113.674;2022-07-12T03:32:40;93470.25;;;22.22;52.23
64687;BME280;51113;53.646;-113.674;2022-07-12T03:35:09;93476.97;;;22.16;52.65
64687;BME280;51113;53.646;-113.674;2022-07-12T03:37:45;93469.97;;;22.14;51.79
64687;BME280;51113;53.646;-113.674;2022-07-12T03:40:16;93468.69;;;22.03;52.69
64687;BME280;51113;53.646;-113.674;2022-07-12T03:42:46;93463.59;;;21.93;52.81
64687;BME280;51113;53.646;-113.674;2022-07-12T03:45:16;93460.75;;;21.81;53.38
64687;BME280;51113;53.646;-113.674;2022-07-12T03:47:45;93460.28;;;21.70;54.04
64687;BME280;51113;53.646;-113.674;2022-07-12T03:50:16;93456.00;;;21.61;53.96
64687;BME280;51113;53.646;-113.674;2022-07-12T03:52:44;93453.75;;;21.63;54.21
64687;BME280;51113;53.646;-113.674;2022-07-12T03:55:13;93464.75;;;21.58;54.76
64687;BME280;51113;53.646;-113.674;2022-07-12T03:57:42;93459.81;;;21.42;55.26
64687;BME280;51113;53.646;-113.674;2022-07-12T04:00:12;93453.44;;;21.38;55.20
64687;BME280;51113;53.646;-113.674;2022-07-12T04:02:41;93457.25;;;21.37;54.98
64687;BME280;51113;53.646;-113.674;2022-07-12T04:05:12;93459.78;;;21.25;55.99
64687;BME280;51113;53.646;-113.674;2022-07-12T04:07:41;93455.94;;;21.17;56.50
64687;BME280;51113;53.646;-113.674;2022-07-12T04:10:10;93452.91;;;21.10;56.04
64687;BME280;51113;53.646;-113.674;2022-07-12T04:12:39;93450.81;;;20.99;55.74
64687;BME280;51113;53.646;-113.674;2022-07-12T04:15:08;93453.84;;;21.06;55.53
64687;BME280;51113;53.646;-113.674;2022-07-12T04:17:37;93451.97;;;21.15;55.68
64687;BME280;51113;53.646;-113.674;2022-07-12T04:20:06;93454.19;;;21.13;55.05
64687;BME280;51113;53.646;-113.674;2022-07-12T04:22:35;93458.78;;;21.12;54.93
64687;BME280;51113;53.646;-113.674;2022-07-12T04:25:05;93452.25;;;21.05;55.90
64687;BME280;51113;53.646;-113.674;2022-07-12T04:27:35;93454.31;;;20.99;56.42
64687;BME280;51113;53.646;-113.674;2022-07-12T04:30:04;93458.28;;;21.02;55.28
64687;BME280;51113;53.646;-113.674;2022-07-12T04:32:33;93454.50;;;21.03;55.57
64687;BME280;51113;53.646;-113.674;2022-07-12T04:35:02;93451.59;;;20.91;57.47
64687;BME280;51113;53.646;-113.674;2022-07-12T04:37:30;93449.69;;;20.82;56.39
64687;BME280;51113;53.646;-113.674;2022-07-12T04:39:59;93457.88;;;20.77;57.95
64687;BME280;51113;53.646;-113.674;2022-07-12T04:42:29;93460.59;;;20.77;56.22
64687;BME280;51113;53.646;-113.674;2022-07-12T04:44:57;93456.25;;;20.59;58.75
64687;BME280;51113;53.646;-113.674;2022-07-12T04:47:26;93451.13;;;20.49;59.81
64687;BME280;51113;53.646;-113.674;2022-07-12T04:49:55;93458.06;;;20.41;59.08
64687;BME280;51113;53.646;-113.674;2022-07-12T04:52:23;93456.78;;;20.39;58.55
64687;BME280;51113;53.646;-113.674;2022-07-12T04:54:52;93455.69;;;20.40;59.06
64687;BME280;51113;53.646;-113.674;2022-07-12T04:57:21;93456.19;;;20.42;58.94
64687;BME280;51113;53.646;-113.674;2022-07-12T04:59:50;93461.63;;;20.28;59.24
64687;BME280;51113;53.646;-113.674;2022-07-12T05:02:18;93453.38;;;20.24;60.10
64687;BME280;51113;53.646;-113.674;2022-07-12T05:04:47;93452.53;;;20.15;59.36
64687;BME280;51113;53.646;-113.674;2022-07-12T05:07:15;93456.00;;;19.85;60.66
64687;BME280;51113;53.646;-113.674;2022-07-12T05:09:44;93453.75;;;19.78;61.40
64687;BME280;51113;53.646;-113.674;2022-07-12T05:12:13;93450.88;;;19.75;61.52
64687;BME280;51113;53.646;-113.674;2022-07-12T05:14:42;93454.66;;;19.74;62.15
64687;BME280;51113;53.646;-113.674;2022-07-12T05:17:11;93446.41;;;19.70;61.92
64687;BME280;51113;53.646;-113.674;2022-07-12T05:19:40;93443.63;;;19.84;61.20
64687;BME280;51113;53.646;-113.674;2022-07-12T05:22:09;93447.13;;;19.84;60.99
64687;BME280;51113;53.646;-113.674;2022-07-12T05:24:37;93444.41;;;19.84;61.51
64687;BME280;51113;53.646;-113.674;2022-07-12T05:27:06;93449.94;;;19.79;62.03
64687;BME280;51113;53.646;-113.674;2022-07-12T05:29:34;93450.25;;;19.78;61.48
64687;BME280;51113;53.646;-113.674;2022-07-12T05:32:03;93436.28;;;19.53;63.84
64687;BME280;51113;53.646;-113.674;2022-07-12T05:34:37;93437.75;;;19.59;63.04
64687;BME280;51113;53.646;-113.674;2022-07-12T05:37:06;93436.66;;;19.61;62.65
64687;BME280;51113;53.646;-113.674;2022-07-12T05:39:35;93439.66;;;19.59;63.22
64687;BME280;51113;53.646;-113.674;2022-07-12T05:42:11;93438.06;;;19.58;63.52
64687;BME280;51113;53.646;-113.674;2022-07-12T05:44:39;93438.38;;;19.56;63.08
64687;BME280;51113;53.646;-113.674;2022-07-12T05:47:11;93433.28;;;19.55;63.74
64687;BME280;51113;53.646;-113.674;2022-07-12T05:49:41;93431.38;;;19.55;63.77
64687;BME280;51113;53.646;-113.674;2022-07-12T05:52:09;93430.53;;;19.69;62.47
64687;BME280;51113;53.646;-113.674;2022-07-12T05:54:56;93425.44;;;19.67;63.06
64687;BME280;51113;53.646;-113.674;2022-07-12T05:57:25;93433.03;;;19.65;62.45
64687;BME280;51113;53.646;-113.674;2022-07-12T05:59:53;93425.88;;;19.61;62.60
64687;BME280;51113;53.646;-113.674;2022-07-12T06:02:22;93424.59;;;19.58;62.57
64687;BME280;51113;53.646;-113.674;2022-07-12T06:04:51;93419.13;;;19.49;64.21
64687;BME280;51113;53.646;-113.674;2022-07-12T06:07:19;93419.16;;;19.36;63.56
64687;BME280;51113;53.646;-113.674;2022-07-12T06:09:48;93410.78;;;19.37;64.26
64687;BME280;51113;53.646;-113.674;2022-07-12T06:12:17;93416.16;;;19.37;63.91
64687;BME280;51113;53.646;-113.674;2022-07-12T06:14:45;93417.09;;;19.33;63.62
64687;BME280;51113;53.646;-113.674;2022-07-12T06:17:16;93417.22;;;19.27;64.13
64687;BME280;51113;53.646;-113.674;2022-07-12T06:19:49;93403.88;;;19.22;64.34
64687;BME280;51113;53.646;-113.674;2022-07-12T06:22:18;93402.56;;;19.20;64.19
64687;BME280;51113;53.646;-113.674;2022-07-12T06:24:47;93394.63;;;19.15;64.67
64687;BME280;51113;53.646;-113.674;2022-07-12T06:27:15;93396.63;;;19.09;64.78
64687;BME280;51113;53.646;-113.674;2022-07-12T06:29:44;93383.34;;;19.13;64.45
64687;BME280;51113;53.646;-113.674;2022-07-12T06:32:17;93380.28;;;19.06;64.99
64687;BME280;51113;53.646;-113.674;2022-07-12T06:34:45;93383.28;;;19.04;64.65
64687;BME280;51113;53.646;-113.674;2022-07-12T06:37:14;93376.63;;;19.02;65.27
64687;BME280;51113;53.646;-113.674;2022-07-12T06:39:43;93383.09;;;19.01;65.01
64687;BME280;51113;53.646;-113.674;2022-07-12T06:42:11;93368.34;;;18.98;64.86
64687;BME280;51113;53.646;-113.674;2022-07-12T06:44:40;93369.63;;;19.01;64.61
64687;BME280;51113;53.646;-113.674;2022-07-12T06:47:09;93361.06;;;18.99;64.99
64687;BME280;51113;53.646;-113.674;2022-07-12T06:49:38;93361.50;;;18.92;65.47
64687;BME280;51113;53.646;-113.674;2022-07-12T06:52:07;93356.72;;;18.89;65.07
64687;BME280;51113;53.646;-113.674;2022-07-12T06:54:36;93366.06;;;18.91;64.62
64687;BME280;51113;53.646;-113.674;2022-07-12T06:57:04;93364.00;;;18.88;64.71
64687;BME280;51113;53.646;-113.674;2022-07-12T06:59:34;93360.44;;;18.79;66.16
64687;BME280;51113;53.646;-113.674;2022-07-12T07:02:03;93363.22;;;18.74;65.73
64687;BME280;51113;53.646;-113.674;2022-07-12T07:04:32;93351.69;;;18.74;65.81
64687;BME280;51113;53.646;-113.674;2022-07-12T07:07:01;93336.13;;;18.71;65.97
64687;BME280;51113;53.646;-113.674;2022-07-12T07:09:29;93338.53;;;18.72;65.76
64687;BME280;51113;53.646;-113.674;2022-07-12T07:11:58;93331.56;;;18.71;65.64
64687;BME280;51113;53.646;-113.674;2022-07-12T07:14:27;93329.16;;;18.70;65.82
64687;BME280;51113;53.646;-113.674;2022-07-12T07:16:55;93334.06;;;18.68;65.78
64687;BME280;51113;53.646;-113.674;2022-07-12T07:19:24;93325.00;;;18.63;65.91
64687;BME280;51113;53.646;-113.674;2022-07-12T07:21:54;93318.53;;;18.65;65.67
64687;BME280;51113;53.646;-113.674;2022-07-12T07:24:23;93317.81;;;18.59;66.40
64687;BME280;51113;53.646;-113.674;2022-07-12T07:26:52;93321.09;;;18.56;66.12
64687;BME280;51113;53.646;-113.674;2022-07-12T07:29:24;93314.44;;;18.53;66.14
64687;BME280;51113;53.646;-113.674;2022-07-12T07:32:11;93318.72;;;18.54;65.52
64687;BME280;51113;53.646;-113.674;2022-07-12T07:34:40;93313.16;;;18.51;65.97
64687;BME280;51113;53.646;-113.674;2022-07-12T07:37:10;93307.97;;;18.54;66.09
64687;BME280;51113;53.646;-113.674;2022-07-12T07:39:39;93298.00;;;18.55;65.73
64687;BME280;51113;53.646;-113.674;2022-07-12T07:42:08;93294.91;;;18.48;66.37
64687;BME280;51113;53.646;-113.674;2022-07-12T07:44:36;93300.50;;;18.51;65.54
64687;BME280;51113;53.646;-113.674;2022-07-12T07:47:25;93294.91;;;18.48;66.44
64687;BME280;51113;53.646;-113.674;2022-07-12T07:49:57;93293.94;;;18.44;66.21
64687;BME280;51113;53.646;-113.674;2022-07-12T07:52:26;93294.72;;;18.44;66.24
64687;BME280;51113;53.646;-113.674;2022-07-12T07:54:54;93288.63;;;18.52;65.63
64687;BME280;51113;53.646;-113.674;2022-07-12T07:57:23;93284.28;;;18.43;66.20
64687;BME280;51113;53.646;-113.674;2022-07-12T07:59:52;93286.56;;;18.49;65.59
64687;BME280;51113;53.646;-113.674;2022-07-12T08:02:20;93291.75;;;18.46;66.06
64687;BME280;51113;53.646;-113.674;2022-07-12T08:04:49;93289.66;;;18.43;65.96
64687;BME280;51113;53.646;-113.674;2022-07-12T08:07:19;93288.66;;;18.39;66.26
64687;BME280;51113;53.646;-113.674;2022-07-12T08:10:08;93287.06;;;18.38;66.26
64687;BME280;51113;53.646;-113.674;2022-07-12T08:12:36;93285.19;;;18.38;66.32
64687;BME280;51113;53.646;-113.674;2022-07-12T08:15:05;93279.13;;;18.33;66.42
64687;BME280;51113;53.646;-113.674;2022-07-12T08:17:34;93274.47;;;18.24;66.82
64687;BME280;51113;53.646;-113.674;2022-07-12T08:20:20;93274.53;;;18.19;66.38
64687;BME280;51113;53.646;-113.674;2022-07-12T08:23:09;93268.78;;;18.26;65.96
64687;BME280;51113;53.646;-113.674;2022-07-12T08:25:37;93269.56;;;18.26;65.76
64687;BME280;51113;53.646;-113.674;2022-07-12T08:28:06;93268.47;;;18.27;65.65
64687;BME280;51113;53.646;-113.674;2022-07-12T08:30:35;93268.28;;;18.24;65.83
64687;BME280;51113;53.646;-113.674;2022-07-12T08:33:11;93262.72;;;18.20;66.06
64687;BME280;51113;53.646;-113.674;2022-07-12T08:35:39;93267.97;;;18.12;66.22
64687;BME280;51113;53.646;-113.674;2022-07-12T08:38:08;93269.97;;;18.06;66.47
64687;BME280;51113;53.646;-113.674;2022-07-12T08:40:38;93260.94;;;18.02;66.75
64687;BME280;51113;53.646;-113.674;2022-07-12T08:43:07;93263.03;;;17.91;67.34
64687;BME280;51113;53.646;-113.674;2022-07-12T08:45:36;93256.97;;;17.86;67.71
64687;BME280;51113;53.646;-113.674;2022-07-12T08:48:05;93266.53;;;17.78;68.11
64687;BME280;51113;53.646;-113.674;2022-07-12T08:50:34;93273.38;;;17.71;68.74
64687;BME280;51113;53.646;-113.674;2022-07-12T08:53:12;93261.91;;;17.65;69.11
64687;BME280;51113;53.646;-113.674;2022-07-12T08:55:41;93266.59;;;17.59;69.22
64687;BME280;51113;53.646;-113.674;2022-07-12T08:58:15;93261.03;;;17.56;69.32
64687;BME280;51113;53.646;-113.674;2022-07-12T09:00:44;93258.72;;;17.49;70.01
64687;BME280;51113;53.646;-113.674;2022-07-12T09:03:16;93262.00;;;17.46;69.76
64687;BME280;51113;53.646;-113.674;2022-07-12T09:06:05;93259.91;;;17.43;70.05
64687;BME280;51113;53.646;-113.674;2022-07-12T09:08:38;93253.03;;;17.37;70.51
64687;BME280;51113;53.646;-113.674;2022-07-12T09:11:07;93262.19;;;17.36;70.12
64687;BME280;51113;53.646;-113.674;2022-07-12T09:13:47;93259.09;;;17.29;70.75
64687;BME280;51113;53.646;-113.674;2022-07-12T09:16:22;93256.50;;;17.24;70.90
64687;BME280;51113;53.646;-113.674;2022-07-12T09:19:19;93255.81;;;17.18;70.92
64687;BME280;51113;53.646;-113.674;2022-07-12T09:21:53;93258.28;;;17.15;71.18
64687;BME280;51113;53.646;-113.674;2022-07-12T09:24:26;93246.47;;;17.16;70.71
64687;BME280;51113;53.646;-113.674;2022-07-12T09:27:02;93249.44;;;17.14;70.73
64687;BME280;51113;53.646;-113.674;2022-07-12T09:29:32;93247.13;;;17.08;70.92
64687;BME280;51113;53.646;-113.674;2022-07-12T09:32:08;93248.81;;;17.03;71.35
64687;BME280;51113;53.646;-113.674;2022-07-12T09:34:56;93241.34;;;17.00;71.25
64687;BME280;51113;53.646;-113.674;2022-07-12T09:37:44;93240.19;;;17.07;70.78
64687;BME280;51113;53.646;-113.674;2022-07-12T09:40:13;93233.50;;;17.04;70.94
64687;BME280;51113;53.646;-113.674;2022-07-12T09:42:41;93238.47;;;16.97;71.32
64687;BME280;51113;53.646;-113.674;2022-07-12T09:45:10;93235.78;;;16.97;71.64
64687;BME280;51113;53.646;-113.674;2022-07-12T09:47:41;93234.00;;;16.92;71.61
64687;BME280;51113;53.646;-113.674;2022-07-12T09:50:11;93234.06;;;16.87;72.09
64687;BME280;51113;53.646;-113.674;2022-07-12T09:52:41;93235.25;;;16.81;72.36
64687;BME280;51113;53.646;-113.674;2022-07-12T09:55:13;93224.59;;;16.76;72.57
64687;BME280;51113;53.646;-113.674;2022-07-12T09:57:46;93235.13;;;16.73;72.95
64687;BME280;51113;53.646;-113.674;2022-07-12T10:00:17;93234.13;;;16.68;72.82
64687;BME280;51113;53.646;-113.674;2022-07-12T10:02:46;93232.81;;;16.66;72.98
64687;BME280;51113;53.646;-113.674;2022-07-12T10:05:17;93229.91;;;16.62;73.48
64687;BME280;51113;53.646;-113.674;2022-07-12T10:07:47;93227.81;;;16.59;73.84
64687;BME280;51113;53.646;-113.674;2022-07-12T10:10:17;93232.66;;;16.57;73.88
64687;BME280;51113;53.646;-113.674;2022-07-12T10:12:46;93221.50;;;16.50;74.07
64687;BME280;51113;53.646;-113.674;2022-07-12T10:15:18;93221.81;;;16.49;74.49
64687;BME280;51113;53.646;-113.674;2022-07-12T10:17:54;93224.28;;;16.45;74.62
64687;BME280;51113;53.646;-113.674;2022-07-12T10:20:28;93219.00;;;16.40;74.54
64687;BME280;51113;53.646;-113.674;2022-07-12T10:23:33;93219.34;;;16.33;75.18
64687;BME280;51113;53.646;-113.674;2022-07-12T10:26:37;93216.75;;;16.28;75.54
64687;BME280;51113;53.646;-113.674;2022-07-12T10:29:08;93210.88;;;16.26;75.73
64687;BME280;51113;53.646;-113.674;2022-07-12T10:31:38;93211.97;;;16.25;75.45
64687;BME280;51113;53.646;-113.674;2022-07-12T10:34:20;93210.38;;;16.24;75.87
64687;BME280;51113;53.646;-113.674;2022-07-12T10:40:16;93215.53;;;16.21;75.97
64687;BME280;51113;53.646;-113.674;2022-07-12T10:45:42;93215.38;;;16.12;76.32
64687;BME280;51113;53.646;-113.674;2022-07-12T10:53:34;93219.06;;;15.97;77.47
64687;BME280;51113;53.646;-113.674;2022-07-12T10:56:16;93222.69;;;15.88;77.79
64687;BME280;51113;53.646;-113.674;2022-07-12T10:58:59;93218.19;;;15.83;77.99
64687;BME280;51113;53.646;-113.674;2022-07-12T11:01:30;93224.63;;;15.82;78.62
64687;BME280;51113;53.646;-113.674;2022-07-12T11:04:07;93217.69;;;15.81;78.52
64687;BME280;51113;53.646;-113.674;2022-07-12T11:06:40;93212.91;;;15.78;78.81
64687;BME280;51113;53.646;-113.674;2022-07-12T11:09:15;93211.09;;;15.73;78.92
64687;BME280;51113;53.646;-113.674;2022-07-12T11:11:46;93205.50;;;15.70;78.97
64687;BME280;51113;53.646;-113.674;2022-07-12T11:14:23;93207.19;;;15.66;79.42
64687;BME280;51113;53.646;-113.674;2022-07-12T11:16:53;93215.50;;;15.64;79.68
64687;BME280;51113;53.646;-113.674;2022-07-12T11:19:28;93208.03;;;15.61;79.87
64687;BME280;51113;53.646;-113.674;2022-07-12T11:21:57;93207.78;;;15.58;79.84
64687;BME280;51113;53.646;-113.674;2022-07-12T11:24:28;93209.13;;;15.55;79.97
64687;BME280;51113;53.646;-113.674;2022-07-12T11:26:58;93207.00;;;15.52;80.27
64687;BME280;51113;53.646;-113.674;2022-07-12T11:29:29;93205.19;;;15.48;80.60
64687;BME280;51113;53.646;-113.674;2022-07-12T11:32:03;93200.66;;;15.48;80.50
64687;BME280;51113;53.646;-113.674;2022-07-12T11:34:37;93203.09;;;15.44;80.68
64687;BME280;51113;53.646;-113.674;2022-07-12T11:37:06;93203.44;;;15.38;81.08
64687;BME280;51113;53.646;-113.674;2022-07-12T11:39:39;93199.75;;;15.34;81.39
64687;BME280;51113;53.646;-113.674;2022-07-12T11:42:09;93203.50;;;15.33;81.50
64687;BME280;51113;53.646;-113.674;2022-07-12T11:44:42;93206.97;;;15.33;81.43
64687;BME280;51113;53.646;-113.674;2022-07-12T11:47:12;93200.81;;;15.33;81.46
64687;BME280;51113;53.646;-113.674;2022-07-12T11:49:50;93192.84;;;15.28;81.68
64687;BME280;51113;53.646;-113.674;2022-07-12T11:52:21;93207.31;;;15.27;81.85
64687;BME280;51113;53.646;-113.674;2022-07-12T11:54:52;93209.75;;;15.23;82.26
64687;BME280;51113;53.646;-113.674;2022-07-12T11:57:22;93208.47;;;15.21;82.68
64687;BME280;51113;53.646;-113.674;2022-07-12T11:59:51;93201.16;;;15.26;82.63
64687;BME280;51113;53.646;-113.674;2022-07-12T12:02:20;93204.13;;;15.25;82.71
64687;BME280;51113;53.646;-113.674;2022-07-12T12:04:51;93197.13;;;15.29;82.72
64687;BME280;51113;53.646;-113.674;2022-07-12T12:07:22;93200.59;;;15.29;82.18
64687;BME280;51113;53.646;-113.674;2022-07-12T12:12:50;93190.97;;;15.28;82.19
64687;BME280;51113;53.646;-113.674;2022-07-12T12:15:28;93196.03;;;15.30;82.21
64687;BME280;51113;53.646;-113.674;2022-07-12T12:18:04;93192.56;;;15.29;82.22
64687;BME280;51113;53.646;-113.674;2022-07-12T12:20:34;93185.34;;;15.30;82.30
64687;BME280;51113;53.646;-113.674;2022-07-12T12:23:17;93180.50;;;15.32;82.34
64687;BME280;51113;53.646;-113.674;2022-07-12T12:25:46;93176.75;;;15.33;82.32
64687;BME280;51113;53.646;-113.674;2022-07-12T12:28:21;93170.03;;;15.35;82.21
64687;BME280;51113;53.646;-113.674;2022-07-12T12:30:56;93183.13;;;15.37;82.65
64687;BME280;51113;53.646;-113.674;2022-07-12T12:36:24;93179.34;;;15.38;82.50
64687;BME280;51113;53.646;-113.674;2022-07-12T12:39:00;93185.22;;;15.40;82.47
64687;BME280;51113;53.646;-113.674;2022-07-12T12:41:38;93204.19;;;15.43;82.34
64687;BME280;51113;53.646;-113.674;2022-07-12T12:44:11;93199.63;;;15.44;82.40
64687;BME280;51113;53.646;-113.674;2022-07-12T12:46:55;93199.06;;;15.47;82.87
64687;BME280;51113;53.646;-113.674;2022-07-12T12:52:22;93191.97;;;15.61;83.62
64687;BME280;51113;53.646;-113.674;2022-07-12T12:54:51;93199.16;;;15.66;83.67
64687;BME280;51113;53.646;-113.674;2022-07-12T12:57:20;93197.78;;;15.68;83.79
64687;BME280;51113;53.646;-113.674;2022-07-12T12:59:48;93204.22;;;15.67;83.93
64687;BME280;51113;53.646;-113.674;2022-07-12T13:02:17;93217.03;;;15.70;83.38
64687;BME280;51113;53.646;-113.674;2022-07-12T13:04:47;93210.50;;;15.77;83.37
64687;BME280;51113;53.646;-113.674;2022-07-12T13:07:15;93217.44;;;15.54;85.98
64687;BME280;51113;53.646;-113.674;2022-07-12T13:09:44;93230.66;;;15.45;85.67